sensor_id;sensor_type;location;lat;lon;timestamp;P1;durP1;ratioP1;P2;durP2;ratioP2
60076;SDS011;45950;45.208;20.374;2023-06-19T00:00:54;7.45;;;6.07;;
60076;SDS011;45950;45.208;20.374;2023-06-19T00:03:21;8.13;;;6.05;;
60076;SDS011;45950;45.208;20.374;2023-06-19T00:05:47;7.82;;;6.18;;
60076;SDS011;45950;45.208;20.374;2023-06-19T00:08:14;8.82;;;5.43;;
60076;SDS011;45950;45.208;20.374;2023-06-19T00:10:40;10.02;;;6.68;;
60076;SDS011;45950;45.208;20.374;2023-06-19T00:13:07;7.50;;;5.95;;
60076;SDS011;45950;45.208;20.374;2023-06-19T00:15:35;7.18;;;6.20;;
60076;SDS011;45950;45.208;20.374;2023-06-19T00:18:01;8.32;;;5.93;;
60076;SDS011;45950;45.208;20.374;2023-06-19T00:20:28;7.72;;;6.13;;
60076;SDS011;45950;45.208;20.374;2023-06-19T00:22:55;9.90;;;6.55;;
60076;SDS011;45950;45.208;20.374;2023-06-19T00:28:19;9.93;;;7.63;;
60076;SDS011;45950;45.208;20.374;2023-06-19T00:30:48;8.73;;;7.07;;
60076;SDS011;45950;45.208;20.374;2023-06-19T00:33:15;9.77;;;7.22;;
60076;SDS011;45950;45.208;20.374;2023-06-19T00:35:42;7.60;;;6.75;;
60076;SDS011;45950;45.208;20.374;2023-06-19T00:38:09;8.38;;;6.43;;
60076;SDS011;45950;45.208;20.374;2023-06-19T00:40:35;8.55;;;7.05;;
60076;SDS011;45950;45.208;20.374;2023-06-19T00:43:02;8.68;;;7.15;;
60076;SDS011;45950;45.208;20.374;2023-06-19T00:45:29;11.77;;;7.55;;
60076;SDS011;45950;45.208;20.374;2023-06-19T00:47:57;9.43;;;7.57;;
60076;SDS011;45950;45.208;20.374;2023-06-19T00:50:24;9.35;;;7.25;;
60076;SDS011;45950;45.208;20.374;2023-06-19T00:52:51;11.25;;;7.35;;
60076;SDS011;45950;45.208;20.374;2023-06-19T00:55:17;7.75;;;6.82;;
60076;SDS011;45950;45.208;20.374;2023-06-19T00:57:47;10.38;;;7.50;;
60076;SDS011;45950;45.208;20.374;2023-06-19T01:00:14;9.27;;;7.13;;
60076;SDS011;45950;45.208;20.374;2023-06-19T01:02:41;10.00;;;7.53;;
60076;SDS011;45950;45.208;20.374;2023-06-19T01:05:09;7.72;;;6.75;;
60076;SDS011;45950;45.208;20.374;2023-06-19T01:07:38;9.65;;;6.97;;
60076;SDS011;45950;45.208;20.374;2023-06-19T01:10:13;10.00;;;7.20;;
60076;SDS011;45950;45.208;20.374;2023-06-19T01:12:49;7.07;;;6.30;;
60076;SDS011;45950;45.208;20.374;2023-06-19T01:15:17;7.78;;;6.43;;
60076;SDS011;45950;45.208;20.374;2023-06-19T01:17:44;7.88;;;6.05;;
60076;SDS011;45950;45.208;20.374;2023-06-19T01:23:12;8.90;;;6.10;;
60076;SDS011;45950;45.208;20.374;2023-06-19T01:25:39;10.18;;;6.50;;
60076;SDS011;45950;45.208;20.374;2023-06-19T01:28:06;8.50;;;6.07;;
60076;SDS011;45950;45.208;20.374;2023-06-19T01:30:34;7.00;;;5.82;;
60076;SDS011;45950;45.208;20.374;2023-06-19T01:33:03;7.80;;;5.85;;
60076;SDS011;45950;45.208;20.374;2023-06-19T01:35:33;8.32;;;6.47;;
60076;SDS011;45950;45.208;20.374;2023-06-19T01:38:01;9.85;;;7.05;;
60076;SDS011;45950;45.208;20.374;2023-06-19T01:40:29;9.00;;;7.25;;
60076;SDS011;45950;45.208;20.374;2023-06-19T01:42:57;10.35;;;7.55;;
60076;SDS011;45950;45.208;20.374;2023-06-19T01:45:26;11.35;;;8.10;;
60076;SDS011;45950;45.208;20.374;2023-06-19T01:47:52;12.80;;;9.05;;
60076;SDS011;45950;45.208;20.374;2023-06-19T01:50:19;9.05;;;7.05;;
60076;SDS011;45950;45.208;20.374;2023-06-19T01:52:47;10.77;;;8.20;;
60076;SDS011;45950;45.208;20.374;2023-06-19T01:55:14;10.63;;;7.80;;
60076;SDS011;45950;45.208;20.374;2023-06-19T01:57:42;10.80;;;7.93;;
60076;SDS011;45950;45.208;20.374;2023-06-19T02:00:11;9.30;;;7.47;;
60076;SDS011;45950;45.208;20.374;2023-06-19T02:02:38;11.00;;;7.50;;
60076;SDS011;45950;45.208;20.374;2023-06-19T02:05:13;13.18;;;9.85;;
60076;SDS011;45950;45.208;20.374;2023-06-19T02:07:40;13.43;;;9.48;;
60076;SDS011;45950;45.208;20.374;2023-06-19T02:10:07;14.45;;;9.45;;
60076;SDS011;45950;45.208;20.374;2023-06-19T02:12:34;14.38;;;9.55;;
60076;SDS011;45950;45.208;20.374;2023-06-19T02:15:02;12.57;;;9.02;;
60076;SDS011;45950;45.208;20.374;2023-06-19T02:17:29;12.73;;;8.23;;
60076;SDS011;45950;45.208;20.374;2023-06-19T02:19:55;13.10;;;8.80;;
60076;SDS011;45950;45.208;20.374;2023-06-19T02:22:23;14.68;;;9.52;;
60076;SDS011;45950;45.208;20.374;2023-06-19T02:24:49;11.45;;;8.63;;
60076;SDS011;45950;45.208;20.374;2023-06-19T02:27:16;12.25;;;9.57;;
60076;SDS011;45950;45.208;20.374;2023-06-19T02:29:42;12.95;;;9.63;;
60076;SDS011;45950;45.208;20.374;2023-06-19T02:35:13;11.80;;;7.75;;
60076;SDS011;45950;45.208;20.374;2023-06-19T02:37:40;12.75;;;9.32;;
60076;SDS011;45950;45.208;20.374;2023-06-19T02:40:07;12.15;;;8.82;;
60076;SDS011;45950;45.208;20.374;2023-06-19T02:42:35;13.10;;;9.00;;
60076;SDS011;45950;45.208;20.374;2023-06-19T02:45:02;14.05;;;9.07;;
60076;SDS011;45950;45.208;20.374;2023-06-19T02:47:29;11.85;;;9.23;;
60076;SDS011;45950;45.208;20.374;2023-06-19T02:49:56;13.20;;;9.52;;
60076;SDS011;45950;45.208;20.374;2023-06-19T02:52:24;12.27;;;8.85;;
60076;SDS011;45950;45.208;20.374;2023-06-19T02:54:51;15.82;;;9.82;;
60076;SDS011;45950;45.208;20.374;2023-06-19T02:57:18;13.43;;;8.75;;
60076;SDS011;45950;45.208;20.374;2023-06-19T02:59:44;11.45;;;9.18;;
60076;SDS011;45950;45.208;20.374;2023-06-19T03:02:12;11.35;;;8.63;;
60076;SDS011;45950;45.208;20.374;2023-06-19T03:04:39;14.60;;;9.73;;
60076;SDS011;45950;45.208;20.374;2023-06-19T03:07:06;11.38;;;8.45;;
60076;SDS011;45950;45.208;20.374;2023-06-19T03:09:34;10.98;;;7.80;;
60076;SDS011;45950;45.208;20.374;2023-06-19T03:12:00;10.43;;;8.15;;
60076;SDS011;45950;45.208;20.374;2023-06-19T03:14:43;11.30;;;8.98;;
60076;SDS011;45950;45.208;20.374;2023-06-19T03:17:09;10.90;;;8.13;;
60076;SDS011;45950;45.208;20.374;2023-06-19T03:19:36;11.85;;;8.45;;
60076;SDS011;45950;45.208;20.374;2023-06-19T03:22:03;10.40;;;7.65;;
60076;SDS011;45950;45.208;20.374;2023-06-19T03:24:29;12.40;;;8.13;;
60076;SDS011;45950;45.208;20.374;2023-06-19T03:26:57;11.82;;;7.95;;
60076;SDS011;45950;45.208;20.374;2023-06-19T03:29:24;12.95;;;9.05;;
60076;SDS011;45950;45.208;20.374;2023-06-19T03:31:50;10.95;;;7.85;;
60076;SDS011;45950;45.208;20.374;2023-06-19T03:34:17;11.10;;;7.78;;
60076;SDS011;45950;45.208;20.374;2023-06-19T03:36:43;12.98;;;8.85;;
60076;SDS011;45950;45.208;20.374;2023-06-19T03:39:10;14.73;;;9.00;;
60076;SDS011;45950;45.208;20.374;2023-06-19T03:41:36;11.55;;;8.05;;
60076;SDS011;45950;45.208;20.374;2023-06-19T03:44:05;16.40;;;9.90;;
60076;SDS011;45950;45.208;20.374;2023-06-19T03:46:31;12.20;;;8.95;;
60076;SDS011;45950;45.208;20.374;2023-06-19T03:48:58;13.23;;;9.40;;
60076;SDS011;45950;45.208;20.374;2023-06-19T03:51:24;12.48;;;8.48;;
60076;SDS011;45950;45.208;20.374;2023-06-19T03:53:51;12.93;;;8.55;;
60076;SDS011;45950;45.208;20.374;2023-06-19T03:56:17;9.38;;;7.72;;
60076;SDS011;45950;45.208;20.374;2023-06-19T03:58:44;10.98;;;9.00;;
60076;SDS011;45950;45.208;20.374;2023-06-19T04:01:12;11.73;;;9.55;;
60076;SDS011;45950;45.208;20.374;2023-06-19T04:03:38;11.48;;;8.60;;
60076;SDS011;45950;45.208;20.374;2023-06-19T04:06:05;11.48;;;9.68;;
60076;SDS011;45950;45.208;20.374;2023-06-19T04:08:32;11.80;;;9.35;;
60076;SDS011;45950;45.208;20.374;2023-06-19T04:10:59;13.15;;;9.30;;
60076;SDS011;45950;45.208;20.374;2023-06-19T04:13:25;11.00;;;8.70;;
60076;SDS011;45950;45.208;20.374;2023-06-19T04:15:52;12.13;;;9.07;;
60076;SDS011;45950;45.208;20.374;2023-06-19T04:18:20;13.23;;;9.88;;
60076;SDS011;45950;45.208;20.374;2023-06-19T04:20:46;12.07;;;8.98;;
60076;SDS011;45950;45.208;20.374;2023-06-19T04:23:13;11.32;;;8.95;;
60076;SDS011;45950;45.208;20.374;2023-06-19T04:25:39;13.30;;;9.27;;
60076;SDS011;45950;45.208;20.374;2023-06-19T04:28:06;13.15;;;9.70;;
60076;SDS011;45950;45.208;20.374;2023-06-19T04:30:32;14.00;;;10.18;;
60076;SDS011;45950;45.208;20.374;2023-06-19T04:32:59;14.85;;;10.30;;
60076;SDS011;45950;45.208;20.374;2023-06-19T04:35:40;14.85;;;9.52;;
60076;SDS011;45950;45.208;20.374;2023-06-19T04:38:07;12.77;;;9.35;;
60076;SDS011;45950;45.208;20.374;2023-06-19T04:40:33;14.18;;;9.35;;
60076;SDS011;45950;45.208;20.374;2023-06-19T04:45:27;11.40;;;8.90;;
60076;SDS011;45950;45.208;20.374;2023-06-19T04:47:54;11.68;;;9.07;;
60076;SDS011;45950;45.208;20.374;2023-06-19T04:50:20;13.35;;;8.77;;
60076;SDS011;45950;45.208;20.374;2023-06-19T04:52:48;13.30;;;9.65;;
60076;SDS011;45950;45.208;20.374;2023-06-19T04:55:15;12.93;;;10.00;;
60076;SDS011;45950;45.208;20.374;2023-06-19T04:57:42;12.43;;;9.15;;
60076;SDS011;45950;45.208;20.374;2023-06-19T05:00:09;12.23;;;10.02;;
60076;SDS011;45950;45.208;20.374;2023-06-19T05:02:41;13.85;;;10.88;;
60076;SDS011;45950;45.208;20.374;2023-06-19T05:05:08;13.07;;;10.43;;
60076;SDS011;45950;45.208;20.374;2023-06-19T05:07:35;16.48;;;12.60;;
60076;SDS011;45950;45.208;20.374;2023-06-19T05:10:03;14.70;;;9.80;;
60076;SDS011;45950;45.208;20.374;2023-06-19T05:12:30;17.52;;;9.15;;
60076;SDS011;45950;45.208;20.374;2023-06-19T05:14:57;11.68;;;9.20;;
60076;SDS011;45950;45.208;20.374;2023-06-19T05:17:23;12.48;;;9.77;;
60076;SDS011;45950;45.208;20.374;2023-06-19T05:19:50;15.20;;;9.95;;
60076;SDS011;45950;45.208;20.374;2023-06-19T05:22:16;13.20;;;9.85;;
60076;SDS011;45950;45.208;20.374;2023-06-19T05:24:47;12.82;;;8.85;;
60076;SDS011;45950;45.208;20.374;2023-06-19T05:27:15;11.38;;;8.85;;
60076;SDS011;45950;45.208;20.374;2023-06-19T05:29:41;17.30;;;10.73;;
60076;SDS011;45950;45.208;20.374;2023-06-19T05:32:08;10.88;;;9.52;;
60076;SDS011;45950;45.208;20.374;2023-06-19T05:34:34;10.68;;;8.68;;
60076;SDS011;45950;45.208;20.374;2023-06-19T05:37:01;13.82;;;11.60;;
60076;SDS011;45950;45.208;20.374;2023-06-19T05:39:28;10.30;;;9.05;;
60076;SDS011;45950;45.208;20.374;2023-06-19T05:41:55;11.00;;;8.20;;
60076;SDS011;45950;45.208;20.374;2023-06-19T05:44:23;14.60;;;12.15;;
60076;SDS011;45950;45.208;20.374;2023-06-19T05:46:50;15.73;;;12.88;;
60076;SDS011;45950;45.208;20.374;2023-06-19T05:49:16;18.25;;;14.30;;
60076;SDS011;45950;45.208;20.374;2023-06-19T05:51:43;12.88;;;10.65;;
60076;SDS011;45950;45.208;20.374;2023-06-19T05:54:09;14.35;;;9.98;;
60076;SDS011;45950;45.208;20.374;2023-06-19T05:56:36;11.85;;;9.98;;
60076;SDS011;45950;45.208;20.374;2023-06-19T05:59:02;11.25;;;8.82;;
60076;SDS011;45950;45.208;20.374;2023-06-19T06:01:31;13.43;;;8.43;;
60076;SDS011;45950;45.208;20.374;2023-06-19T06:03:57;14.18;;;9.85;;
60076;SDS011;45950;45.208;20.374;2023-06-19T06:09:16;12.80;;;8.70;;
60076;SDS011;45950;45.208;20.374;2023-06-19T06:11:42;12.75;;;10.13;;
60076;SDS011;45950;45.208;20.374;2023-06-19T06:14:09;12.77;;;9.88;;
60076;SDS011;45950;45.208;20.374;2023-06-19T06:16:37;11.65;;;9.82;;
60076;SDS011;45950;45.208;20.374;2023-06-19T06:19:03;11.57;;;9.80;;
60076;SDS011;45950;45.208;20.374;2023-06-19T06:21:31;12.05;;;10.13;;
60076;SDS011;45950;45.208;20.374;2023-06-19T06:23:57;11.52;;;10.30;;
60076;SDS011;45950;45.208;20.374;2023-06-19T06:26:24;11.95;;;9.85;;
60076;SDS011;45950;45.208;20.374;2023-06-19T06:28:50;14.20;;;11.00;;
60076;SDS011;45950;45.208;20.374;2023-06-19T06:31:17;13.13;;;10.27;;
60076;SDS011;45950;45.208;20.374;2023-06-19T06:33:45;11.40;;;9.20;;
60076;SDS011;45950;45.208;20.374;2023-06-19T06:36:14;16.10;;;10.23;;
60076;SDS011;45950;45.208;20.374;2023-06-19T06:38:40;11.05;;;9.32;;
60076;SDS011;45950;45.208;20.374;2023-06-19T06:41:07;10.93;;;8.98;;
60076;SDS011;45950;45.208;20.374;2023-06-19T06:43:41;10.63;;;7.75;;
60076;SDS011;45950;45.208;20.374;2023-06-19T06:46:08;12.73;;;8.55;;
60076;SDS011;45950;45.208;20.374;2023-06-19T06:48:35;10.52;;;9.15;;
60076;SDS011;45950;45.208;20.374;2023-06-19T06:51:04;10.95;;;8.85;;
60076;SDS011;45950;45.208;20.374;2023-06-19T06:53:30;10.18;;;7.53;;
60076;SDS011;45950;45.208;20.374;2023-06-19T06:55:58;10.35;;;7.93;;
60076;SDS011;45950;45.208;20.374;2023-06-19T06:58:25;9.57;;;7.70;;
60076;SDS011;45950;45.208;20.374;2023-06-19T07:00:51;9.50;;;7.53;;
60076;SDS011;45950;45.208;20.374;2023-06-19T07:03:18;10.52;;;7.25;;
60076;SDS011;45950;45.208;20.374;2023-06-19T07:05:45;10.23;;;8.20;;
60076;SDS011;45950;45.208;20.374;2023-06-19T07:08:13;8.40;;;7.03;;
60076;SDS011;45950;45.208;20.374;2023-06-19T07:10:39;8.85;;;6.53;;
60076;SDS011;45950;45.208;20.374;2023-06-19T07:13:06;11.30;;;8.98;;
60076;SDS011;45950;45.208;20.374;2023-06-19T07:15:32;9.30;;;7.80;;
60076;SDS011;45950;45.208;20.374;2023-06-19T07:18:00;10.02;;;8.32;;
60076;SDS011;45950;45.208;20.374;2023-06-19T07:20:27;9.20;;;6.88;;
60076;SDS011;45950;45.208;20.374;2023-06-19T07:22:53;9.43;;;7.70;;
60076;SDS011;45950;45.208;20.374;2023-06-19T07:25:31;9.45;;;7.43;;
60076;SDS011;45950;45.208;20.374;2023-06-19T07:27:59;8.05;;;7.25;;
60076;SDS011;45950;45.208;20.374;2023-06-19T07:30:25;8.57;;;7.25;;
60076;SDS011;45950;45.208;20.374;2023-06-19T07:32:52;7.95;;;6.75;;
60076;SDS011;45950;45.208;20.374;2023-06-19T07:35:18;8.38;;;6.07;;
60076;SDS011;45950;45.208;20.374;2023-06-19T07:37:45;9.13;;;7.65;;
60076;SDS011;45950;45.208;20.374;2023-06-19T07:40:11;7.90;;;6.80;;
60076;SDS011;45950;45.208;20.374;2023-06-19T07:42:39;9.68;;;6.75;;
60076;SDS011;45950;45.208;20.374;2023-06-19T07:45:06;7.43;;;5.75;;
60076;SDS011;45950;45.208;20.374;2023-06-19T07:47:33;8.35;;;5.78;;
60076;SDS011;45950;45.208;20.374;2023-06-19T07:50:00;8.30;;;6.85;;
60076;SDS011;45950;45.208;20.374;2023-06-19T07:52:26;9.30;;;5.70;;
60076;SDS011;45950;45.208;20.374;2023-06-19T07:54:53;7.07;;;6.38;;
60076;SDS011;45950;45.208;20.374;2023-06-19T07:57:20;7.88;;;6.40;;
60076;SDS011;45950;45.208;20.374;2023-06-19T07:59:48;9.32;;;6.35;;
60076;SDS011;45950;45.208;20.374;2023-06-19T08:02:15;6.22;;;4.93;;
60076;SDS011;45950;45.208;20.374;2023-06-19T08:04:41;6.95;;;6.25;;
60076;SDS011;45950;45.208;20.374;2023-06-19T08:07:08;8.20;;;7.05;;
60076;SDS011;45950;45.208;20.374;2023-06-19T08:09:45;7.45;;;6.47;;
60076;SDS011;45950;45.208;20.374;2023-06-19T08:12:11;7.18;;;5.47;;
60076;SDS011;45950;45.208;20.374;2023-06-19T08:14:38;7.90;;;7.10;;
60076;SDS011;45950;45.208;20.374;2023-06-19T08:17:06;7.45;;;5.40;;
60076;SDS011;45950;45.208;20.374;2023-06-19T08:19:32;7.50;;;5.60;;
60076;SDS011;45950;45.208;20.374;2023-06-19T08:21:59;7.20;;;5.47;;
60076;SDS011;45950;45.208;20.374;2023-06-19T08:24:25;7.35;;;5.50;;
60076;SDS011;45950;45.208;20.374;2023-06-19T08:26:52;8.23;;;5.70;;
60076;SDS011;45950;45.208;20.374;2023-06-19T08:29:23;7.57;;;6.22;;
60076;SDS011;45950;45.208;20.374;2023-06-19T08:31:50;7.88;;;6.20;;
60076;SDS011;45950;45.208;20.374;2023-06-19T08:34:18;6.43;;;4.97;;
60076;SDS011;45950;45.208;20.374;2023-06-19T08:36:44;6.68;;;5.97;;
60076;SDS011;45950;45.208;20.374;2023-06-19T08:39:11;7.93;;;5.05;;
60076;SDS011;45950;45.208;20.374;2023-06-19T08:41:37;6.28;;;5.57;;
60076;SDS011;45950;45.208;20.374;2023-06-19T08:44:04;6.82;;;6.13;;
60076;SDS011;45950;45.208;20.374;2023-06-19T08:46:31;5.65;;;4.97;;
60076;SDS011;45950;45.208;20.374;2023-06-19T08:48:57;7.75;;;5.45;;
60076;SDS011;45950;45.208;20.374;2023-06-19T08:51:27;7.68;;;6.10;;
60076;SDS011;45950;45.208;20.374;2023-06-19T08:53:56;6.70;;;5.20;;
60076;SDS011;45950;45.208;20.374;2023-06-19T08:56:22;8.35;;;5.28;;
60076;SDS011;45950;45.208;20.374;2023-06-19T08:58:49;8.65;;;5.32;;
60076;SDS011;45950;45.208;20.374;2023-06-19T09:01:16;5.78;;;5.03;;
60076;SDS011;45950;45.208;20.374;2023-06-19T09:03:43;6.18;;;5.40;;
60076;SDS011;45950;45.208;20.374;2023-06-19T09:06:13;7.28;;;5.60;;
60076;SDS011;45950;45.208;20.374;2023-06-19T09:08:42;6.30;;;4.80;;
60076;SDS011;45950;45.208;20.374;2023-06-19T09:11:08;8.52;;;6.25;;
60076;SDS011;45950;45.208;20.374;2023-06-19T09:13:35;8.80;;;5.70;;
60076;SDS011;45950;45.208;20.374;2023-06-19T09:16:02;12.38;;;6.60;;
60076;SDS011;45950;45.208;20.374;2023-06-19T09:18:29;6.78;;;5.70;;
60076;SDS011;45950;45.208;20.374;2023-06-19T09:20:57;8.32;;;6.32;;
60076;SDS011;45950;45.208;20.374;2023-06-19T09:23:24;7.22;;;6.28;;
60076;SDS011;45950;45.208;20.374;2023-06-19T09:25:52;7.10;;;6.22;;
60076;SDS011;45950;45.208;20.374;2023-06-19T09:28:20;6.95;;;5.80;;
60076;SDS011;45950;45.208;20.374;2023-06-19T09:30:53;6.70;;;5.18;;
60076;SDS011;45950;45.208;20.374;2023-06-19T09:33:21;5.32;;;4.80;;
60076;SDS011;45950;45.208;20.374;2023-06-19T09:35:48;5.88;;;5.00;;
60076;SDS011;45950;45.208;20.374;2023-06-19T09:38:15;8.98;;;5.82;;
60076;SDS011;45950;45.208;20.374;2023-06-19T09:40:43;9.00;;;6.00;;
60076;SDS011;45950;45.208;20.374;2023-06-19T09:43:12;5.10;;;4.57;;
60076;SDS011;45950;45.208;20.374;2023-06-19T09:45:39;7.28;;;6.20;;
60076;SDS011;45950;45.208;20.374;2023-06-19T09:48:06;6.80;;;4.80;;
60076;SDS011;45950;45.208;20.374;2023-06-19T09:50:36;8.25;;;6.30;;
60076;SDS011;45950;45.208;20.374;2023-06-19T09:53:03;7.38;;;6.20;;
60076;SDS011;45950;45.208;20.374;2023-06-19T09:55:30;7.65;;;6.38;;
60076;SDS011;45950;45.208;20.374;2023-06-19T09:57:58;6.65;;;5.40;;
60076;SDS011;45950;45.208;20.374;2023-06-19T10:00:28;6.30;;;5.38;;
60076;SDS011;45950;45.208;20.374;2023-06-19T10:02:57;7.03;;;5.72;;
60076;SDS011;45950;45.208;20.374;2023-06-19T10:05:28;7.53;;;5.32;;
60076;SDS011;45950;45.208;20.374;2023-06-19T10:07:55;5.50;;;4.82;;
60076;SDS011;45950;45.208;20.374;2023-06-19T10:10:25;6.75;;;5.65;;
60076;SDS011;45950;45.208;20.374;2023-06-19T10:12:53;7.63;;;5.97;;
60076;SDS011;45950;45.208;20.374;2023-06-19T10:15:23;7.85;;;4.63;;
60076;SDS011;45950;45.208;20.374;2023-06-19T10:17:52;5.43;;;4.60;;
60076;SDS011;45950;45.208;20.374;2023-06-19T10:20:23;5.80;;;4.93;;
60076;SDS011;45950;45.208;20.374;2023-06-19T10:22:50;5.00;;;4.50;;
60076;SDS011;45950;45.208;20.374;2023-06-19T10:25:21;6.03;;;4.82;;
60076;SDS011;45950;45.208;20.374;2023-06-19T10:27:48;8.00;;;5.70;;
60076;SDS011;45950;45.208;20.374;2023-06-19T10:30:17;6.30;;;4.63;;
60076;SDS011;45950;45.208;20.374;2023-06-19T10:32:44;5.30;;;4.80;;
60076;SDS011;45950;45.208;20.374;2023-06-19T10:35:12;7.05;;;5.30;;
60076;SDS011;45950;45.208;20.374;2023-06-19T10:37:39;7.75;;;4.65;;
60076;SDS011;45950;45.208;20.374;2023-06-19T10:40:06;5.30;;;4.80;;
60076;SDS011;45950;45.208;20.374;2023-06-19T10:42:35;5.20;;;4.70;;
60076;SDS011;45950;45.208;20.374;2023-06-19T10:45:03;4.65;;;4.00;;
60076;SDS011;45950;45.208;20.374;2023-06-19T10:47:32;4.53;;;4.07;;
60076;SDS011;45950;45.208;20.374;2023-06-19T10:50:14;7.63;;;4.72;;
60076;SDS011;45950;45.208;20.374;2023-06-19T10:52:41;6.55;;;4.68;;
60076;SDS011;45950;45.208;20.374;2023-06-19T10:55:08;5.75;;;4.32;;
60076;SDS011;45950;45.208;20.374;2023-06-19T10:57:35;5.38;;;4.60;;
60076;SDS011;45950;45.208;20.374;2023-06-19T11:00:04;5.57;;;4.57;;
60076;SDS011;45950;45.208;20.374;2023-06-19T11:02:36;5.80;;;4.38;;
60076;SDS011;45950;45.208;20.374;2023-06-19T11:05:04;4.85;;;4.10;;
60076;SDS011;45950;45.208;20.374;2023-06-19T11:07:33;6.15;;;4.13;;
60076;SDS011;45950;45.208;20.374;2023-06-19T11:09:59;5.22;;;4.53;;
60076;SDS011;45950;45.208;20.374;2023-06-19T11:12:26;5.45;;;4.90;;
60076;SDS011;45950;45.208;20.374;2023-06-19T11:14:53;5.13;;;4.43;;
60076;SDS011;45950;45.208;20.374;2023-06-19T11:17:19;5.53;;;3.70;;
60076;SDS011;45950;45.208;20.374;2023-06-19T11:19:47;4.22;;;3.83;;
60076;SDS011;45950;45.208;20.374;2023-06-19T11:22:13;5.25;;;4.50;;
60076;SDS011;45950;45.208;20.374;2023-06-19T11:24:44;5.82;;;4.20;;
60076;SDS011;45950;45.208;20.374;2023-06-19T11:27:16;6.90;;;4.30;;
60076;SDS011;45950;45.208;20.374;2023-06-19T11:29:43;7.78;;;4.95;;
60076;SDS011;45950;45.208;20.374;2023-06-19T11:32:11;5.57;;;5.07;;
60076;SDS011;45950;45.208;20.374;2023-06-19T11:34:38;4.80;;;4.10;;
60076;SDS011;45950;45.208;20.374;2023-06-19T11:37:11;5.40;;;4.13;;
60076;SDS011;45950;45.208;20.374;2023-06-19T11:39:37;4.55;;;3.95;;
60076;SDS011;45950;45.208;20.374;2023-06-19T11:42:06;6.32;;;4.85;;
60076;SDS011;45950;45.208;20.374;2023-06-19T11:44:33;5.80;;;5.00;;
60076;SDS011;45950;45.208;20.374;2023-06-19T11:46:59;6.70;;;4.78;;
60076;SDS011;45950;45.208;20.374;2023-06-19T11:49:28;5.68;;;4.15;;
60076;SDS011;45950;45.208;20.374;2023-06-19T11:52:00;4.70;;;4.20;;
60076;SDS011;45950;45.208;20.374;2023-06-19T11:54:27;7.05;;;5.15;;
60076;SDS011;45950;45.208;20.374;2023-06-19T11:56:54;5.60;;;4.60;;
60076;SDS011;45950;45.208;20.374;2023-06-19T11:59:22;7.03;;;5.20;;
60076;SDS011;45950;45.208;20.374;2023-06-19T12:01:49;5.53;;;4.95;;
60076;SDS011;45950;45.208;20.374;2023-06-19T12:04:16;5.70;;;5.13;;
60076;SDS011;45950;45.208;20.374;2023-06-19T12:06:43;6.97;;;4.53;;
60076;SDS011;45950;45.208;20.374;2023-06-19T12:09:09;6.68;;;4.65;;
60076;SDS011;45950;45.208;20.374;2023-06-19T12:11:36;4.72;;;4.05;;
60076;SDS011;45950;45.208;20.374;2023-06-19T12:14:03;4.57;;;4.18;;
60076;SDS011;45950;45.208;20.374;2023-06-19T12:16:31;6.22;;;4.72;;
60076;SDS011;45950;45.208;20.374;2023-06-19T12:18:58;5.75;;;4.25;;
60076;SDS011;45950;45.208;20.374;2023-06-19T12:21:24;4.65;;;4.15;;
60076;SDS011;45950;45.208;20.374;2023-06-19T12:23:51;5.50;;;5.00;;
60076;SDS011;45950;45.208;20.374;2023-06-19T12:26:18;8.23;;;5.07;;
60076;SDS011;45950;45.208;20.374;2023-06-19T12:28:45;6.40;;;5.60;;
60076;SDS011;45950;45.208;20.374;2023-06-19T12:31:11;5.95;;;4.63;;
60076;SDS011;45950;45.208;20.374;2023-06-19T12:33:39;4.88;;;4.20;;
60076;SDS011;45950;45.208;20.374;2023-06-19T12:36:09;7.13;;;5.20;;
60076;SDS011;45950;45.208;20.374;2023-06-19T12:38:37;5.53;;;4.85;;
60076;SDS011;45950;45.208;20.374;2023-06-19T12:41:04;6.32;;;5.13;;
60076;SDS011;45950;45.208;20.374;2023-06-19T12:43:30;5.97;;;5.32;;
60076;SDS011;45950;45.208;20.374;2023-06-19T12:45:58;5.40;;;4.82;;
60076;SDS011;45950;45.208;20.374;2023-06-19T12:48:25;7.75;;;5.50;;
60076;SDS011;45950;45.208;20.374;2023-06-19T12:50:53;5.07;;;4.28;;
60076;SDS011;45950;45.208;20.374;2023-06-19T12:53:20;4.97;;;4.47;;
60076;SDS011;45950;45.208;20.374;2023-06-19T12:55:51;7.90;;;5.40;;
60076;SDS011;45950;45.208;20.374;2023-06-19T12:58:18;6.88;;;5.38;;
60076;SDS011;45950;45.208;20.374;2023-06-19T13:00:44;5.13;;;4.40;;
60076;SDS011;45950;45.208;20.374;2023-06-19T13:03:11;8.15;;;5.40;;
60076;SDS011;45950;45.208;20.374;2023-06-19T13:05:37;5.63;;;4.78;;
60076;SDS011;45950;45.208;20.374;2023-06-19T13:08:05;5.22;;;4.72;;
60076;SDS011;45950;45.208;20.374;2023-06-19T13:10:32;8.20;;;5.22;;
60076;SDS011;45950;45.208;20.374;2023-06-19T13:12:58;5.32;;;4.35;;
60076;SDS011;45950;45.208;20.374;2023-06-19T13:15:25;5.85;;;5.10;;
60076;SDS011;45950;45.208;20.374;2023-06-19T13:17:52;7.40;;;5.60;;
60076;SDS011;45950;45.208;20.374;2023-06-19T13:20:19;5.63;;;4.57;;
60076;SDS011;45950;45.208;20.374;2023-06-19T13:22:45;5.05;;;4.47;;
60076;SDS011;45950;45.208;20.374;2023-06-19T13:25:13;5.05;;;4.47;;
60076;SDS011;45950;45.208;20.374;2023-06-19T13:27:40;6.45;;;4.50;;
60076;SDS011;45950;45.208;20.374;2023-06-19T13:30:07;5.70;;;4.63;;
60076;SDS011;45950;45.208;20.374;2023-06-19T13:32:33;5.95;;;4.82;;
60076;SDS011;45950;45.208;20.374;2023-06-19T13:35:00;5.65;;;5.05;;
60076;SDS011;45950;45.208;20.374;2023-06-19T13:37:27;5.25;;;4.40;;
60076;SDS011;45950;45.208;20.374;2023-06-19T13:39:54;6.13;;;5.10;;
60076;SDS011;45950;45.208;20.374;2023-06-19T13:42:22;5.38;;;4.63;;
60076;SDS011;45950;45.208;20.374;2023-06-19T13:44:48;6.93;;;4.60;;
60076;SDS011;45950;45.208;20.374;2023-06-19T13:47:15;5.85;;;5.20;;
60076;SDS011;45950;45.208;20.374;2023-06-19T13:49:42;4.90;;;4.38;;
60076;SDS011;45950;45.208;20.374;2023-06-19T13:52:11;5.80;;;4.57;;
60076;SDS011;45950;45.208;20.374;2023-06-19T13:54:38;5.63;;;4.03;;
60076;SDS011;45950;45.208;20.374;2023-06-19T13:57:04;5.47;;;4.30;;
60076;SDS011;45950;45.208;20.374;2023-06-19T13:59:32;5.22;;;4.43;;
60076;SDS011;45950;45.208;20.374;2023-06-19T14:01:59;6.07;;;5.40;;
60076;SDS011;45950;45.208;20.374;2023-06-19T14:04:26;6.00;;;5.40;;
60076;SDS011;45950;45.208;20.374;2023-06-19T14:06:52;6.05;;;4.28;;
60076;SDS011;45950;45.208;20.374;2023-06-19T14:09:20;5.22;;;4.65;;
60076;SDS011;45950;45.208;20.374;2023-06-19T14:11:47;6.72;;;5.40;;
60076;SDS011;45950;45.208;20.374;2023-06-19T14:14:13;5.32;;;4.70;;
60076;SDS011;45950;45.208;20.374;2023-06-19T14:16:41;4.97;;;4.22;;
60076;SDS011;45950;45.208;20.374;2023-06-19T14:19:10;4.93;;;4.50;;
60076;SDS011;45950;45.208;20.374;2023-06-19T14:21:36;6.25;;;5.20;;
60076;SDS011;45950;45.208;20.374;2023-06-19T14:24:03;5.05;;;4.55;;
60076;SDS011;45950;45.208;20.374;2023-06-19T14:26:30;5.47;;;4.97;;
60076;SDS011;45950;45.208;20.374;2023-06-19T14:28:56;6.82;;;4.72;;
60076;SDS011;45950;45.208;20.374;2023-06-19T14:31:24;6.50;;;4.90;;
60076;SDS011;45950;45.208;20.374;2023-06-19T14:33:52;5.95;;;5.35;;
60076;SDS011;45950;45.208;20.374;2023-06-19T14:36:18;7.10;;;4.53;;
60076;SDS011;45950;45.208;20.374;2023-06-19T14:38:45;5.60;;;4.55;;
60076;SDS011;45950;45.208;20.374;2023-06-19T14:41:11;4.97;;;4.05;;
60076;SDS011;45950;45.208;20.374;2023-06-19T14:43:38;5.10;;;4.18;;